createdAt,value
2018-04-26T00:01:03.639Z,0
2018-04-26T00:02:11.712Z,0
2018-04-26T00:03:19.761Z,0
2018-04-26T00:04:27.832Z,0
2018-04-26T00:05:35.898Z,0
2018-04-26T00:06:43.953Z,0
2018-04-26T00:07:52.042Z,0
2018-04-26T00:09:00.067Z,0
2018-04-26T00:10:08.131Z,0
2018-04-26T00:11:16.193Z,0
2018-04-26T00:12:24.256Z,0
2018-04-26T00:13:32.306Z,0
2018-04-26T00:14:40.376Z,0
2018-04-26T00:15:48.452Z,0
2018-04-26T00:16:56.492Z,0
2018-04-26T00:18:04.547Z,0
2018-04-26T00:19:12.622Z,0
2018-04-26T00:20:20.677Z,0
2018-04-26T00:21:28.725Z,0
2018-04-26T00:22:36.800Z,0
2018-04-26T00:23:44.833Z,0
2018-04-26T00:24:52.922Z,0
2018-04-26T00:26:00.972Z,0
2018-04-26T00:27:09.050Z,0
2018-04-26T00:28:17.097Z,0
2018-04-26T00:29:25.141Z,0
2018-04-26T00:30:33.220Z,0
2018-04-26T00:31:41.285Z,0
2018-04-26T00:32:49.341Z,0
2018-04-26T00:33:57.410Z,0
2018-04-26T00:35:05.436Z,0
2018-04-26T00:36:13.519Z,0
2018-04-26T00:37:21.595Z,0
2018-04-26T00:38:29.641Z,0
2018-04-26T00:39:37.697Z,0
2018-04-26T00:40:45.775Z,0
2018-04-26T00:41:53.824Z,0
2018-04-26T00:43:01.881Z,0
2018-04-26T00:44:09.960Z,0
2018-04-26T00:45:18.022Z,0
2018-04-26T00:46:26.088Z,0
2018-04-26T00:47:34.122Z,0
2018-04-26T00:48:42.197Z,0
2018-04-26T00:49:50.267Z,0
2018-04-26T00:50:58.331Z,0
2018-04-26T00:52:06.391Z,0
2018-04-26T00:53:14.457Z,0
2018-04-26T00:54:22.526Z,0
2018-04-26T00:55:30.579Z,0
2018-04-26T00:56:38.630Z,0
2018-04-26T00:57:46.679Z,0
2018-04-26T00:58:54.723Z,0
2018-04-26T01:00:02.815Z,0
2018-04-26T01:01:10.895Z,0
2018-04-26T01:02:18.936Z,0
2018-04-26T01:03:27.006Z,0
2018-04-26T01:04:35.030Z,0
2018-04-26T01:05:43.119Z,0
2018-04-26T01:06:51.191Z,0
2018-04-26T01:07:59.250Z,0
2018-04-26T01:09:07.323Z,0
2018-04-26T01:10:15.339Z,0
2018-04-26T01:11:23.424Z,0
2018-04-26T01:12:31.491Z,0
2018-04-26T01:13:39.554Z,0
2018-04-26T01:14:47.621Z,0
2018-04-26T01:15:55.683Z,0
2018-04-26T01:17:03.733Z,0
2018-04-26T01:18:11.799Z,0
2018-04-26T01:19:19.860Z,0
2018-04-26T01:20:27.910Z,0
2018-04-26T01:21:35.981Z,0
2018-04-26T01:22:44.041Z,0
2018-04-26T01:23:52.115Z,0
2018-04-26T01:25:00.152Z,0
2018-04-26T01:26:08.228Z,0
2018-04-26T01:27:16.290Z,0
2018-04-26T01:28:24.349Z,0
2018-04-26T01:29:32.400Z,0
2018-04-26T01:30:40.473Z,0
2018-04-26T01:31:48.525Z,0
2018-04-26T01:32:56.600Z,0
2018-04-26T01:34:04.693Z,0
2018-04-26T01:35:12.718Z,0
2018-04-26T01:36:20.772Z,0
2018-04-26T01:37:28.837Z,0
2018-04-26T01:38:36.900Z,0
2018-04-26T01:39:44.938Z,0
2018-04-26T01:40:53.035Z,0
2018-04-26T01:42:01.076Z,0
2018-04-26T01:43:09.156Z,0
2018-04-26T01:44:17.202Z,0
2018-04-26T01:45:25.230Z,0
2018-04-26T01:46:33.313Z,0
2018-04-26T01:47:41.378Z,0
2018-04-26T01:48:49.454Z,0
2018-04-26T01:49:57.514Z,0
2018-04-26T01:51:05.559Z,0
2018-04-26T01:52:13.623Z,0
2018-04-26T01:53:21.687Z,0
2018-04-26T01:54:29.780Z,0
2018-04-26T01:55:37.816Z,0
2018-04-26T01:56:45.870Z,0
2018-04-26T01:57:53.939Z,0
2018-04-26T01:59:02.013Z,0
2018-04-26T02:00:10.054Z,0
2018-04-26T02:01:18.112Z,0
2018-04-26T02:02:26.171Z,0
2018-04-26T02:03:34.237Z,0
2018-04-26T02:04:42.285Z,0
2018-04-26T02:05:50.359Z,0
2018-04-26T02:06:58.412Z,0
2018-04-26T02:08:06.471Z,0
2018-04-26T02:09:14.529Z,0
2018-04-26T02:10:22.600Z,0
2018-04-26T02:11:30.666Z,0
2018-04-26T02:12:38.728Z,0
2018-04-26T02:13:46.784Z,0
2018-04-26T02:14:54.817Z,0
2018-04-26T02:16:02.918Z,0
2018-04-26T02:17:10.962Z,0
2018-04-26T02:18:19.036Z,0
2018-04-26T02:19:27.097Z,0
2018-04-26T02:20:35.131Z,0
2018-04-26T02:21:43.200Z,0
2018-04-26T02:22:51.275Z,0
2018-04-26T02:23:59.336Z,0
2018-04-26T02:25:07.401Z,0
2018-04-26T02:26:15.439Z,0
2018-04-26T02:27:23.537Z,0
2018-04-26T02:28:31.586Z,0
2018-04-26T02:29:39.639Z,0
2018-04-26T02:30:47.706Z,0
2018-04-26T02:31:55.764Z,0
2018-04-26T02:33:03.824Z,0
2018-04-26T02:34:11.889Z,0
2018-04-26T02:35:19.937Z,0
2018-04-26T02:36:28.001Z,0
2018-04-26T02:37:36.076Z,0
2018-04-26T02:38:44.119Z,0
2018-04-26T02:39:52.181Z,0
2018-04-26T02:41:00.241Z,0
2018-04-26T02:42:08.313Z,0
2018-04-26T02:43:16.383Z,0
2018-04-26T02:44:24.430Z,0
2018-04-26T02:45:32.518Z,0
2018-04-26T02:46:40.566Z,0
2018-04-26T02:47:48.633Z,0
2018-04-26T02:48:56.688Z,0
2018-04-26T02:50:04.709Z,0
2018-04-26T02:51:12.809Z,0
2018-04-26T02:52:20.847Z,0
2018-04-26T02:53:28.910Z,0
2018-04-26T02:54:36.976Z,0
2018-04-26T02:55:45.020Z,0
2018-04-26T02:56:53.113Z,0
2018-04-26T02:58:01.188Z,0
2018-04-26T02:59:09.217Z,0
2018-04-26T03:00:17.283Z,0
2018-04-26T03:01:25.321Z,0
2018-04-26T03:02:33.427Z,0
2018-04-26T03:03:41.460Z,0
2018-04-26T03:04:49.539Z,0
2018-04-26T03:05:57.594Z,0
2018-04-26T03:07:05.637Z,0
2018-04-26T03:08:13.726Z,0
2018-04-26T03:09:21.770Z,0
2018-04-26T03:10:29.836Z,0
2018-04-26T03:11:37.878Z,0
2018-04-26T03:12:45.961Z,0
2018-04-26T03:13:54.014Z,0
2018-04-26T03:15:02.068Z,0
2018-04-26T03:16:10.183Z,0
2018-04-26T03:17:18.187Z,0
2018-04-26T03:18:26.265Z,0
2018-04-26T03:19:34.314Z,0
2018-04-26T03:20:42.371Z,0
2018-04-26T03:21:50.423Z,0
2018-04-26T03:22:58.491Z,0
2018-04-26T03:24:06.563Z,0
2018-04-26T03:25:14.597Z,0
2018-04-26T03:26:22.675Z,0
2018-04-26T03:27:30.743Z,0
2018-04-26T03:28:38.792Z,0
2018-04-26T03:29:46.854Z,0
2018-04-26T03:30:54.898Z,0
2018-04-26T03:32:02.985Z,0
2018-04-26T03:33:11.047Z,0
2018-04-26T03:34:19.118Z,0
2018-04-26T03:35:27.161Z,0
2018-04-26T03:36:35.194Z,0
2018-04-26T03:37:43.277Z,0
2018-04-26T03:38:51.335Z,0
2018-04-26T03:39:59.401Z,0
2018-04-26T03:41:07.460Z,0
2018-04-26T03:42:15.520Z,0
2018-04-26T03:43:23.595Z,0
2018-04-26T03:44:31.652Z,0
2018-04-26T03:45:39.706Z,0
2018-04-26T03:46:47.774Z,0
2018-04-26T03:47:55.819Z,0
2018-04-26T03:49:03.880Z,0
2018-04-26T03:50:11.939Z,0
2018-04-26T03:51:20.006Z,0
2018-04-26T03:52:28.073Z,0
2018-04-26T03:53:36.126Z,0
2018-04-26T03:54:44.194Z,0
2018-04-26T03:55:52.261Z,0
2018-04-26T03:57:00.314Z,0
2018-04-26T03:58:08.366Z,0
2018-04-26T03:59:16.434Z,0
2018-04-26T04:00:24.494Z,0
2018-04-26T04:01:32.607Z,0
2018-04-26T04:02:40.603Z,0
2018-04-26T04:03:48.677Z,0
2018-04-26T04:04:56.745Z,0
2018-04-26T04:06:04.763Z,0
2018-04-26T04:07:12.854Z,0
2018-04-26T04:08:20.911Z,0
2018-04-26T04:09:28.971Z,0
2018-04-26T04:10:37.028Z,0
2018-04-26T04:11:45.068Z,0
2018-04-26T04:12:54.888Z,0
2018-04-26T04:14:01.216Z,0
2018-04-26T04:15:09.272Z,0
2018-04-26T04:16:17.323Z,0
2018-04-26T04:17:25.376Z,0
2018-04-26T04:18:33.501Z,0
2018-04-26T04:19:41.508Z,0
2018-04-26T04:20:49.577Z,5
2018-04-26T04:21:57.638Z,5
2018-04-26T04:23:05.714Z,5
2018-04-26T04:24:13.954Z,5
2018-04-26T04:25:21.819Z,10
2018-04-26T04:26:29.894Z,10
2018-04-26T04:27:37.955Z,10
2018-04-26T04:28:46.122Z,10
2018-04-26T04:29:54.083Z,10
2018-04-26T04:31:02.116Z,10
2018-04-26T04:32:10.198Z,10
2018-04-26T04:33:18.243Z,10
2018-04-26T04:34:26.325Z,15
2018-04-26T04:35:34.354Z,15
2018-04-26T04:36:42.438Z,15
2018-04-26T04:37:50.496Z,20
2018-04-26T04:38:58.794Z,25
2018-04-26T04:40:06.624Z,25
2018-04-26T04:41:14.662Z,25
2018-04-26T04:42:22.739Z,25
2018-04-26T04:43:30.864Z,30
2018-04-26T04:44:38.856Z,30
2018-04-26T04:45:48.313Z,35
2018-04-26T04:46:54.937Z,35
2018-04-26T04:48:04.611Z,35
2018-04-26T04:49:11.494Z,40
2018-04-26T04:50:19.173Z,50
2018-04-26T04:51:27.213Z,50
2018-04-26T04:52:35.247Z,45
2018-04-26T04:53:43.347Z,50
2018-04-26T04:54:51.392Z,45
2018-04-26T04:55:59.927Z,45
2018-04-26T04:57:07.514Z,50
2018-04-26T04:58:15.602Z,60
2018-04-26T04:59:23.651Z,60
2018-04-26T05:00:31.705Z,55
2018-04-26T05:01:39.749Z,55
2018-04-26T05:02:47.811Z,70
2018-04-26T05:03:55.890Z,75
2018-04-26T05:05:03.924Z,80
2018-04-26T05:06:11.993Z,80
2018-04-26T05:07:20.063Z,75
2018-04-26T05:08:28.120Z,70
2018-04-26T05:09:36.176Z,75
2018-04-26T05:10:44.241Z,90
2018-04-26T05:11:52.307Z,95
2018-04-26T05:13:00.371Z,95
2018-04-26T05:14:08.418Z,95
2018-04-26T05:15:16.473Z,120
2018-04-26T05:16:24.528Z,115
2018-04-26T05:17:32.613Z,110
2018-04-26T05:18:40.777Z,115
2018-04-26T05:19:48.756Z,90
2018-04-26T05:20:56.786Z,95
2018-04-26T05:22:04.824Z,115
2018-04-26T05:23:12.913Z,115
2018-04-26T05:24:20.962Z,100
2018-04-26T05:25:29.114Z,105
2018-04-26T05:26:37.084Z,110
2018-04-26T05:27:45.118Z,115
2018-04-26T05:28:53.188Z,125
2018-04-26T05:30:01.313Z,130
2018-04-26T05:31:09.336Z,140
2018-04-26T05:32:17.371Z,130
2018-04-26T05:33:25.427Z,140
2018-04-26T05:34:33.497Z,150
2018-04-26T05:35:41.590Z,150
2018-04-26T05:36:49.627Z,145
2018-04-26T05:37:57.687Z,145
2018-04-26T05:39:05.782Z,140
2018-04-26T05:40:13.803Z,150
2018-04-26T05:41:21.868Z,135
2018-04-26T05:42:29.925Z,160
2018-04-26T05:43:37.995Z,185
2018-04-26T05:44:46.051Z,160
2018-04-26T05:45:54.121Z,160
2018-04-26T05:47:02.183Z,165
2018-04-26T05:48:10.217Z,240
2018-04-26T05:49:18.297Z,205
2018-04-26T05:50:26.363Z,220
2018-04-26T05:51:34.408Z,235
2018-04-26T05:52:42.478Z,205
2018-04-26T05:53:50.545Z,170
2018-04-26T05:54:58.613Z,205
2018-04-26T05:56:06.684Z,205
2018-04-26T05:57:14.713Z,210
2018-04-26T05:58:22.784Z,180
2018-04-26T05:59:30.860Z,205
2018-04-26T06:00:38.891Z,205
2018-04-26T06:01:46.977Z,195
2018-04-26T06:02:55.009Z,205
2018-04-26T06:04:03.082Z,205
2018-04-26T06:05:11.152Z,215
2018-04-26T06:06:19.218Z,220
2018-04-26T06:07:27.290Z,215
2018-04-26T06:08:35.311Z,225
2018-04-26T06:09:43.401Z,215
2018-04-26T06:10:51.460Z,215
2018-04-26T06:11:59.527Z,210
2018-04-26T06:13:07.579Z,220
2018-04-26T06:14:15.665Z,245
2018-04-26T06:15:23.720Z,265
2018-04-26T06:16:31.776Z,275
2018-04-26T06:17:39.838Z,220
2018-04-26T06:18:47.899Z,240
2018-04-26T06:19:55.993Z,225
2018-04-26T06:21:04.031Z,240
2018-04-26T06:22:12.090Z,250
2018-04-26T06:23:20.151Z,225
2018-04-26T06:24:28.204Z,250
2018-04-26T06:25:36.256Z,290
2018-04-26T06:26:44.334Z,305
2018-04-26T06:27:52.381Z,345
2018-04-26T06:29:00.446Z,315
2018-04-26T06:30:08.522Z,340
2018-04-26T06:31:16.574Z,310
2018-04-26T06:32:24.621Z,350
2018-04-26T06:33:32.709Z,265
2018-04-26T06:34:40.771Z,300
2018-04-26T06:35:48.834Z,275
2018-04-26T06:36:56.957Z,295
2018-04-26T06:38:04.915Z,380
2018-04-26T06:39:13.047Z,370
2018-04-26T06:40:21.081Z,355
2018-04-26T06:41:29.140Z,340
2018-04-26T06:42:37.200Z,340
2018-04-26T06:43:45.245Z,340
2018-04-26T06:44:53.333Z,295
2018-04-26T06:46:01.392Z,310
2018-04-26T06:47:09.454Z,305
2018-04-26T06:48:17.512Z,355
2018-04-26T06:49:25.578Z,395
2018-04-26T06:50:33.647Z,425
2018-04-26T06:51:41.701Z,335
2018-04-26T06:52:49.780Z,325
2018-04-26T06:53:57.838Z,370
2018-04-26T06:55:05.900Z,335
2018-04-26T06:56:13.950Z,375
2018-04-26T06:57:22.034Z,430
2018-04-26T06:58:30.086Z,445
2018-04-26T06:59:38.147Z,480
2018-04-26T07:00:46.202Z,405
2018-04-26T07:01:54.282Z,405
2018-04-26T07:03:02.339Z,500
2018-04-26T07:04:10.412Z,495
2018-04-26T07:05:18.470Z,585
2018-04-26T07:06:26.541Z,540
2018-04-26T07:07:34.585Z,555
2018-04-26T07:08:42.661Z,670
2018-04-26T07:09:50.736Z,515
2018-04-26T07:10:58.788Z,345
2018-04-26T07:12:06.950Z,445
2018-04-26T07:13:14.895Z,515
2018-04-26T07:14:22.991Z,570
2018-04-26T07:15:31.053Z,525
2018-04-26T07:16:39.120Z,450
2018-04-26T07:17:47.188Z,320
2018-04-26T07:18:55.222Z,230
2018-04-26T07:20:03.328Z,325
2018-04-26T07:21:11.384Z,445
2018-04-26T07:22:19.445Z,520
2018-04-26T07:23:27.509Z,610
2018-04-26T07:24:35.577Z,655
2018-04-26T07:25:43.630Z,565
2018-04-26T07:26:51.713Z,475
2018-04-26T07:27:59.758Z,470
2018-04-26T07:29:07.838Z,550
2018-04-26T07:30:15.909Z,620
2018-04-26T07:31:23.979Z,680
2018-04-26T07:32:32.029Z,655
2018-04-26T07:33:40.106Z,615
2018-04-26T07:34:48.230Z,675
2018-04-26T07:35:56.227Z,660
2018-04-26T07:37:04.294Z,710
2018-04-26T07:38:12.369Z,710
2018-04-26T07:39:20.443Z,650
2018-04-26T07:40:28.523Z,810
2018-04-26T07:41:36.560Z,715
2018-04-26T07:42:44.611Z,690
2018-04-26T07:43:52.721Z,810
2018-04-26T07:45:00.758Z,735
2018-04-26T07:46:08.833Z,860
2018-04-26T07:47:16.902Z,1220
2018-04-26T07:48:24.939Z,1065
2018-04-26T07:49:33.036Z,1270
2018-04-26T07:50:41.097Z,940
2018-04-26T07:51:49.176Z,1285
2018-04-26T07:52:57.236Z,745
2018-04-26T07:54:05.302Z,910
2018-04-26T07:55:13.366Z,920
2018-04-26T07:56:21.451Z,990
2018-04-26T07:57:29.514Z,780
2018-04-26T07:58:37.574Z,525
2018-04-26T07:59:45.647Z,590
2018-04-26T08:00:53.713Z,520
2018-04-26T08:02:01.793Z,475
2018-04-26T08:03:09.859Z,435
2018-04-26T08:04:17.916Z,380
2018-04-26T08:05:25.987Z,405
2018-04-26T08:06:34.065Z,425
2018-04-26T08:07:42.121Z,470
2018-04-26T08:08:50.202Z,510
2018-04-26T08:09:58.281Z,535
2018-04-26T08:11:06.332Z,605
2018-04-26T08:12:14.410Z,575
2018-04-26T08:13:22.480Z,440
2018-04-26T08:14:30.546Z,430
2018-04-26T08:15:38.594Z,380
2018-04-26T08:16:46.680Z,285
2018-04-26T08:17:54.721Z,275
2018-04-26T08:19:02.835Z,285
2018-04-26T08:20:10.880Z,300
2018-04-26T08:21:18.951Z,285
2018-04-26T08:22:27.013Z,265
2018-04-26T08:23:35.063Z,270
2018-04-26T08:24:43.164Z,265
2018-04-26T08:25:51.224Z,300
2018-04-26T08:26:59.290Z,315
2018-04-26T08:28:07.350Z,280
2018-04-26T08:29:15.386Z,290
2018-04-26T08:30:23.565Z,250
2018-04-26T08:31:31.538Z,260
2018-04-26T08:32:39.626Z,300
2018-04-26T08:33:47.691Z,235
2018-04-26T08:34:55.778Z,245
2018-04-26T08:36:03.828Z,280
2018-04-26T08:37:11.862Z,295
2018-04-26T08:38:19.929Z,335
2018-04-26T08:39:28.013Z,395
2018-04-26T08:40:36.080Z,385
2018-04-26T08:41:44.153Z,375
2018-04-26T08:42:52.209Z,420
2018-04-26T08:44:00.277Z,425
2018-04-26T08:45:08.343Z,400
2018-04-26T08:46:16.405Z,440
2018-04-26T08:47:24.464Z,500
2018-04-26T08:48:32.536Z,475
2018-04-26T08:49:40.603Z,525
2018-04-26T08:50:48.659Z,530
2018-04-26T08:51:56.727Z,530
2018-04-26T08:53:04.772Z,505
2018-04-26T08:54:12.880Z,530
2018-04-26T08:55:20.942Z,605
2018-04-26T08:56:28.981Z,505
2018-04-26T08:57:37.055Z,520
2018-04-26T08:58:45.106Z,500
2018-04-26T08:59:53.223Z,475
2018-04-26T09:01:01.251Z,500
2018-04-26T09:02:09.327Z,585
2018-04-26T09:03:17.396Z,530
2018-04-26T09:04:25.439Z,540
2018-04-26T09:05:33.509Z,495
2018-04-26T09:06:41.638Z,525
2018-04-26T09:07:49.653Z,720
2018-04-26T09:08:57.720Z,790
2018-04-26T09:10:05.787Z,650
2018-04-26T09:11:13.842Z,595
2018-04-26T09:12:21.912Z,585
2018-04-26T09:13:29.996Z,455
2018-04-26T09:14:38.037Z,405
2018-04-26T09:15:46.119Z,340
2018-04-26T09:16:54.179Z,345
2018-04-26T09:18:02.239Z,330
2018-04-26T09:19:10.320Z,385
2018-04-26T09:20:18.383Z,435
2018-04-26T09:21:26.446Z,395
2018-04-26T09:22:34.508Z,350
2018-04-26T09:23:42.579Z,370
2018-04-26T09:24:50.633Z,440
2018-04-26T09:25:58.707Z,505
2018-04-26T09:27:06.781Z,570
2018-04-26T09:28:14.823Z,595
2018-04-26T09:29:22.912Z,520
2018-04-26T09:30:30.984Z,320
2018-04-26T09:31:39.057Z,210
2018-04-26T09:32:47.108Z,200
2018-04-26T09:33:55.141Z,250
2018-04-26T09:35:03.236Z,380
2018-04-26T09:36:11.286Z,485
2018-04-26T09:37:19.371Z,355
2018-04-26T09:38:27.440Z,290
2018-04-26T09:39:35.478Z,225
2018-04-26T09:40:43.594Z,175
2018-04-26T09:41:51.630Z,140
2018-04-26T09:42:59.709Z,120
2018-04-26T09:44:07.778Z,165
2018-04-26T09:45:15.824Z,195
2018-04-26T09:46:23.892Z,195
2018-04-26T09:47:31.974Z,260
2018-04-26T09:48:40.058Z,330
2018-04-26T09:49:48.107Z,380
2018-04-26T09:50:56.159Z,405
2018-04-26T09:52:04.224Z,425
2018-04-26T09:53:12.287Z,395
2018-04-26T09:54:20.367Z,425
2018-04-26T09:55:28.505Z,460
2018-04-26T09:56:36.490Z,490
2018-04-26T09:57:44.547Z,525
2018-04-26T09:58:52.630Z,615
2018-04-26T10:00:00.680Z,625
2018-04-26T10:01:08.754Z,570
2018-04-26T10:02:16.799Z,555
2018-04-26T10:03:24.850Z,555
2018-04-26T10:04:32.945Z,560
2018-04-26T10:05:41.021Z,525
2018-04-26T10:06:49.123Z,520
2018-04-26T10:07:57.140Z,610
2018-04-26T10:09:05.168Z,650
2018-04-26T10:10:13.269Z,700
2018-04-26T10:11:21.332Z,755
2018-04-26T10:12:29.401Z,760
2018-04-26T10:13:37.465Z,740
2018-04-26T10:14:45.535Z,730
2018-04-26T10:15:53.592Z,680
2018-04-26T10:17:01.717Z,645
2018-04-26T10:18:09.738Z,570
2018-04-26T10:19:17.798Z,575
2018-04-26T10:20:25.923Z,645
2018-04-26T10:21:33.940Z,705
2018-04-26T10:22:41.992Z,705
2018-04-26T10:23:50.059Z,695
2018-04-26T10:24:58.125Z,685
2018-04-26T10:26:06.200Z,625
2018-04-26T10:27:14.263Z,585
2018-04-26T10:28:22.331Z,635
2018-04-26T10:29:30.404Z,620
2018-04-26T10:43:44.973Z,405
2018-04-26T10:43:44.991Z,555
2018-04-26T10:44:15.294Z,545
2018-04-26T10:45:23.337Z,460
2018-04-26T10:46:31.405Z,525
2018-04-26T10:47:39.470Z,595
2018-04-26T10:48:47.548Z,530
2018-04-26T10:49:55.603Z,530
2018-04-26T10:51:03.668Z,560
2018-04-26T10:52:11.740Z,450
2018-04-26T10:53:19.803Z,385
2018-04-26T10:54:27.878Z,435
2018-04-26T10:55:35.932Z,340
2018-04-26T10:56:44.000Z,300
2018-04-26T10:57:52.082Z,390
2018-04-26T10:59:00.127Z,465
2018-04-26T11:00:08.306Z,415
2018-04-26T11:01:16.284Z,500
2018-04-26T11:02:24.349Z,680
2018-04-26T11:03:32.412Z,655
2018-04-26T11:04:40.473Z,430
2018-04-26T11:05:48.542Z,520
2018-04-26T11:06:56.621Z,640
2018-04-26T11:08:04.653Z,490
2018-04-26T11:09:12.788Z,420
2018-04-26T11:10:20.800Z,500
2018-04-26T11:11:28.889Z,595
2018-04-26T11:12:36.941Z,540
2018-04-26T11:13:44.986Z,405
2018-04-26T11:14:53.068Z,310
2018-04-26T11:16:01.151Z,275
2018-04-26T11:17:09.242Z,280
2018-04-26T11:18:17.260Z,285
2018-04-26T11:19:25.311Z,310
2018-04-26T11:20:33.410Z,410
2018-04-26T11:21:41.471Z,535
2018-04-26T11:22:49.544Z,485
2018-04-26T11:23:57.607Z,460
2018-04-26T11:25:05.668Z,395
2018-04-26T11:26:13.732Z,365
2018-04-26T11:27:21.812Z,410
2018-04-26T11:28:29.866Z,400
2018-04-26T11:29:37.924Z,455
2018-04-26T11:30:45.999Z,405
2018-04-26T11:31:54.065Z,395
2018-04-26T11:33:02.140Z,380
2018-04-26T11:34:10.201Z,310
2018-04-26T11:35:18.268Z,340
2018-04-26T11:36:26.333Z,355
2018-04-26T11:37:34.392Z,320
2018-04-26T11:38:42.475Z,335
2018-04-26T11:39:50.523Z,330
2018-04-26T11:40:58.584Z,335
2018-04-26T11:42:06.661Z,365
2018-04-26T11:43:14.709Z,295
2018-04-26T11:44:22.802Z,380
2018-04-26T11:45:30.852Z,485
2018-04-26T11:46:38.966Z,455
2018-04-26T11:47:46.992Z,420
2018-04-26T11:48:55.016Z,420
2018-04-26T11:50:03.199Z,425
2018-04-26T11:51:11.184Z,355
2018-04-26T11:52:19.241Z,370
2018-04-26T11:53:27.305Z,430
2018-04-26T11:54:35.374Z,495
2018-04-26T11:55:43.449Z,445
2018-04-26T11:56:51.512Z,425
2018-04-26T11:57:59.581Z,495
2018-04-26T11:59:07.636Z,410
2018-04-26T12:00:15.700Z,350
2018-04-26T12:01:23.773Z,320
2018-04-26T12:02:31.903Z,265
2018-04-26T12:03:39.904Z,215
2018-04-26T12:04:47.975Z,205
2018-04-26T12:05:56.044Z,175
2018-04-26T12:07:04.092Z,165
2018-04-26T12:08:12.163Z,175
2018-04-26T12:09:20.235Z,225
2018-04-26T12:10:28.296Z,330
2018-04-26T12:11:36.372Z,300
2018-04-26T12:12:44.432Z,290
2018-04-26T12:13:52.484Z,345
2018-04-26T12:15:00.546Z,375
2018-04-26T12:16:08.621Z,395
2018-04-26T12:17:16.695Z,440
2018-04-26T12:18:24.745Z,520
2018-04-26T12:19:32.818Z,515
2018-04-26T12:20:40.882Z,540
2018-04-26T12:21:48.960Z,560
2018-04-26T12:22:57.026Z,595
2018-04-26T12:24:05.064Z,615
2018-04-26T12:25:13.145Z,615
2018-04-26T12:26:21.221Z,615
2018-04-26T12:27:29.276Z,610
2018-04-26T12:28:37.348Z,615
2018-04-26T12:29:45.380Z,570
2018-04-26T12:30:53.465Z,520
2018-04-26T12:32:01.529Z,500
2018-04-26T12:33:09.602Z,510
2018-04-26T12:34:17.684Z,515
2018-04-26T12:35:25.749Z,565
2018-04-26T12:36:33.796Z,560
2018-04-26T12:37:41.873Z,540
2018-04-26T12:38:49.927Z,510
2018-04-26T12:39:57.986Z,540
2018-04-26T12:41:06.072Z,520
2018-04-26T12:42:14.158Z,525
2018-04-26T12:43:22.204Z,540
2018-04-26T12:44:30.268Z,470
2018-04-26T12:45:38.324Z,430
2018-04-26T12:46:46.405Z,400
2018-04-26T12:47:54.577Z,365
2018-04-26T12:49:02.529Z,305
2018-04-26T12:50:10.598Z,260
2018-04-26T12:51:18.682Z,255
2018-04-26T12:52:26.722Z,325
2018-04-26T12:53:34.770Z,295
2018-04-26T12:54:42.872Z,315
2018-04-26T12:55:50.933Z,390
2018-04-26T12:56:58.998Z,360
2018-04-26T12:58:07.118Z,310
2018-04-26T12:59:15.098Z,310
2018-04-26T13:00:23.203Z,325
2018-04-26T13:01:31.273Z,320
2018-04-26T13:02:39.337Z,315
2018-04-26T13:03:47.396Z,385
2018-04-26T13:04:55.478Z,375
2018-04-26T13:06:03.524Z,290
2018-04-26T13:07:11.591Z,245
2018-04-26T13:08:19.656Z,235
2018-04-26T13:09:27.728Z,260
2018-04-26T13:10:35.793Z,365
2018-04-26T13:11:43.858Z,385
2018-04-26T13:12:51.986Z,400
2018-04-26T13:13:59.991Z,460
2018-04-26T13:15:08.052Z,470
2018-04-26T13:16:16.117Z,410
2018-04-26T13:17:24.282Z,425
2018-04-26T13:18:32.249Z,385
2018-04-26T13:19:40.328Z,370
2018-04-26T13:20:48.389Z,315
2018-04-26T13:21:56.453Z,280
2018-04-26T13:23:04.511Z,235
2018-04-26T13:24:12.566Z,265
2018-04-26T13:25:20.643Z,385
2018-04-26T13:26:28.729Z,430
2018-04-26T13:27:36.780Z,445
2018-04-26T13:28:44.818Z,445
2018-04-26T13:29:52.965Z,460
2018-04-26T13:31:00.987Z,480
2018-04-26T13:32:09.034Z,500
2018-04-26T13:33:17.107Z,520
2018-04-26T13:34:25.139Z,535
2018-04-26T13:35:33.246Z,530
2018-04-26T13:36:41.302Z,520
2018-04-26T13:37:49.370Z,505
2018-04-26T13:38:57.432Z,455
2018-04-26T13:40:05.481Z,425
2018-04-26T13:41:13.584Z,370
2018-04-26T13:42:21.646Z,335
2018-04-26T13:43:29.704Z,275
2018-04-26T13:44:37.767Z,300
2018-04-26T13:45:45.835Z,290
2018-04-26T13:46:53.901Z,245
2018-04-26T13:48:01.966Z,220
2018-04-26T13:49:10.022Z,260
2018-04-26T13:50:18.100Z,300
2018-04-26T13:51:26.169Z,325
2018-04-26T13:52:34.237Z,335
2018-04-26T13:53:42.293Z,335
2018-04-26T13:54:50.376Z,340
2018-04-26T13:55:58.422Z,350
2018-04-26T13:57:06.498Z,385
2018-04-26T13:58:14.553Z,390
2018-04-26T13:59:22.636Z,385
2018-04-26T14:00:30.698Z,360
2018-04-26T14:01:38.760Z,320
2018-04-26T14:02:46.830Z,290
2018-04-26T14:03:54.865Z,270
2018-04-26T14:05:02.969Z,275
2018-04-26T14:06:11.071Z,290
2018-04-26T14:07:19.080Z,305
2018-04-26T14:08:27.170Z,340
2018-04-26T14:09:35.195Z,300
2018-04-26T14:10:43.275Z,280
2018-04-26T14:11:51.359Z,240
2018-04-26T14:12:59.428Z,220
2018-04-26T14:14:07.488Z,235
2018-04-26T14:15:15.534Z,255
2018-04-26T14:16:23.612Z,310
2018-04-26T14:17:31.702Z,350
2018-04-26T14:18:39.774Z,365
2018-04-26T14:19:47.819Z,360
2018-04-26T14:20:55.890Z,370
2018-04-26T14:22:03.934Z,355
2018-04-26T14:23:12.123Z,360
2018-04-26T14:24:20.073Z,350
2018-04-26T14:25:28.148Z,345
2018-04-26T14:26:36.205Z,345
2018-04-26T14:27:44.278Z,350
2018-04-26T14:28:52.344Z,385
2018-04-26T14:30:00.420Z,425
2018-04-26T14:31:08.481Z,425
2018-04-26T14:32:16.542Z,400
2018-04-26T14:33:24.604Z,345
2018-04-26T14:34:32.675Z,300
2018-04-26T14:35:40.741Z,280
2018-04-26T14:36:48.797Z,280
2018-04-26T14:37:56.866Z,310
2018-04-26T14:39:04.931Z,315
2018-04-26T14:40:13.015Z,335
2018-04-26T14:41:21.068Z,355
2018-04-26T14:42:29.128Z,360
2018-04-26T14:43:37.210Z,305
2018-04-26T14:44:45.251Z,245
2018-04-26T14:45:53.332Z,215
2018-04-26T14:47:01.442Z,215
2018-04-26T14:48:09.462Z,245
2018-04-26T14:49:17.553Z,220
2018-04-26T14:50:25.584Z,190
2018-04-26T14:51:33.673Z,165
2018-04-26T14:52:41.733Z,140
2018-04-26T14:53:49.817Z,120
2018-04-26T14:54:57.856Z,110
2018-04-26T14:56:05.939Z,100
2018-04-26T14:57:13.997Z,95
2018-04-26T14:58:22.073Z,100
2018-04-26T14:59:30.246Z,100
2018-04-26T15:00:38.198Z,110
2018-04-26T15:01:46.261Z,115
2018-04-26T15:02:54.320Z,120
2018-04-26T15:04:02.395Z,135
2018-04-26T15:05:10.438Z,175
2018-04-26T15:06:18.523Z,225
2018-04-26T15:07:26.585Z,280
2018-04-26T15:08:34.617Z,285
2018-04-26T15:09:42.711Z,270
2018-04-26T15:10:50.773Z,260
2018-04-26T15:11:58.846Z,260
2018-04-26T15:13:06.913Z,270
2018-04-26T15:14:14.946Z,255
2018-04-26T15:15:23.074Z,240
2018-04-26T15:16:31.141Z,230
2018-04-26T15:17:39.176Z,220
2018-04-26T15:18:47.243Z,210
2018-04-26T15:19:55.284Z,205
2018-04-26T15:21:03.362Z,200
2018-04-26T15:22:11.409Z,200
2018-04-26T15:23:19.486Z,195
2018-04-26T15:24:27.558Z,205
2018-04-26T15:25:35.615Z,230
2018-04-26T15:26:43.694Z,230
2018-04-26T15:27:51.761Z,235
2018-04-26T15:28:59.856Z,235
2018-04-26T15:30:07.898Z,245
2018-04-26T15:31:15.953Z,240
2018-04-26T15:32:24.010Z,235
2018-04-26T15:33:32.088Z,220
2018-04-26T15:34:40.150Z,230
2018-04-26T15:35:48.208Z,260
2018-04-26T15:36:56.283Z,320
2018-04-26T15:38:04.355Z,300
2018-04-26T15:39:12.410Z,225
2018-04-26T15:40:20.472Z,220
2018-04-26T15:41:28.525Z,250
2018-04-26T15:42:36.604Z,240
2018-04-26T15:43:44.660Z,195
2018-04-26T15:44:52.739Z,180
2018-04-26T15:46:00.804Z,180
2018-04-26T15:47:08.867Z,190
2018-04-26T15:48:16.935Z,175
2018-04-26T15:49:24.974Z,180
2018-04-26T15:50:33.061Z,230
2018-04-26T15:51:41.132Z,250
2018-04-26T15:52:49.204Z,250
2018-04-26T15:53:57.253Z,250
2018-04-26T15:55:05.306Z,245
2018-04-26T15:56:13.369Z,235
2018-04-26T15:57:21.454Z,240
2018-04-26T15:58:29.518Z,240
2018-04-26T15:59:37.584Z,230
2018-04-26T16:00:45.637Z,225
2018-04-26T16:01:53.704Z,195
2018-04-26T16:03:01.773Z,180
2018-04-26T16:04:09.829Z,180
2018-04-26T16:05:17.909Z,200
2018-04-26T16:06:25.977Z,175
2018-04-26T16:07:34.031Z,145
2018-04-26T16:08:42.095Z,150